createdAt,value
2022-08-05T00:01:28.576Z,2.70
2022-08-05T00:06:33.372Z,2.42
2022-08-05T00:11:49.191Z,2.13
2022-08-05T00:16:57.883Z,2.65
2022-08-05T00:22:00.610Z,2.08
2022-08-05T00:27:10.305Z,1.90
2022-08-05T00:32:16.477Z,2.58
2022-08-05T00:37:20.216Z,2.80
2022-08-05T00:42:32.876Z,2.72
2022-08-05T00:47:57.266Z,2.63
2022-08-05T00:52:57.984Z,2.38
2022-08-05T00:58:01.875Z,2.55
2022-08-05T01:03:08.144Z,1.95
2022-08-05T01:08:40.661Z,2.20
2022-08-05T01:13:57.465Z,2.30
2022-08-05T01:19:30.421Z,2.50
2022-08-05T01:25:03.233Z,2.13
2022-08-05T01:30:17.813Z,1.90
2022-08-05T01:35:51.176Z,2.25
2022-08-05T01:40:55.564Z,2.38
2022-08-05T01:46:06.989Z,2.38
2022-08-05T01:51:20.200Z,2.35
2022-08-05T01:58:11.541Z,2.72
2022-08-05T02:01:51.816Z,2.83
2022-08-05T02:06:59.048Z,2.15
2022-08-05T02:12:06.691Z,2.00
2022-08-05T02:18:27.608Z,2.33
2022-08-05T02:22:59.740Z,2.83
2022-08-05T02:28:08.689Z,2.40
2022-08-05T02:33:24.653Z,2.35
2022-08-05T02:44:02.290Z,2.58
2022-08-05T02:49:11.118Z,2.92
2022-08-05T02:54:36.394Z,2.88
2022-08-05T02:59:47.831Z,2.83
2022-08-05T03:04:57.497Z,3.45
2022-08-05T03:09:59.943Z,2.83
2022-08-05T03:15:06.976Z,2.88
2022-08-05T03:20:13.831Z,2.70
2022-08-05T03:30:40.988Z,2.55
2022-08-05T03:35:47.754Z,2.60
2022-08-05T03:40:50.818Z,2.30
2022-08-05T03:45:55.318Z,2.40
2022-08-05T03:52:50.493Z,3.47
2022-08-05T03:56:41.328Z,2.40
2022-08-05T04:01:49.244Z,3.83
2022-08-05T04:06:54.593Z,2.53
2022-08-05T04:11:59.562Z,4.13
2022-08-05T04:17:03.239Z,3.83
2022-08-05T04:22:11.991Z,11.45
2022-08-05T04:27:15.489Z,3.40
2022-08-05T04:32:20.124Z,4.55
2022-08-05T04:38:01.278Z,2.30
2022-08-05T04:42:57.829Z,2.63
2022-08-05T04:48:07.637Z,7.75
2022-08-05T04:53:20.498Z,7.20
2022-08-05T04:58:24.254Z,2.38
2022-08-05T05:03:26.835Z,2.67
2022-08-05T05:08:50.178Z,2.15
2022-08-05T05:13:52.654Z,1.98
2022-08-05T05:19:18.598Z,1.75
2022-08-05T05:24:21.693Z,1.40
2022-08-05T05:29:24.069Z,1.58
2022-08-05T05:34:46.492Z,1.30
2022-08-05T05:39:50.443Z,1.13
2022-08-05T05:44:52.922Z,1.20
2022-08-05T05:50:02.249Z,1.25
2022-08-05T05:55:13.534Z,1.15
2022-08-05T06:00:18.323Z,1.00
2022-08-05T06:05:20.931Z,3.65
2022-08-05T06:10:25.069Z,4.00
2022-08-05T06:16:27.574Z,2.30
2022-08-05T06:20:54.452Z,1.55
2022-08-05T06:26:13.765Z,1.30
2022-08-05T06:31:22.028Z,1.45
2022-08-05T06:36:26.024Z,1.30
2022-08-05T06:41:30.193Z,0.77
2022-08-05T06:46:37.477Z,0.88
2022-08-05T06:51:40.864Z,0.90
2022-08-05T06:56:54.768Z,0.90
2022-08-05T07:02:08.220Z,0.75
2022-08-05T07:07:11.232Z,0.80
2022-08-05T07:12:19.165Z,0.80
2022-08-05T07:17:59.948Z,0.68
2022-08-05T07:22:44.252Z,0.95
2022-08-05T07:27:57.063Z,0.68
2022-08-05T07:33:05.176Z,5.80
2022-08-05T07:38:12.403Z,7.78
2022-08-05T07:43:20.751Z,1.70
2022-08-05T07:49:02.903Z,1.70
2022-08-05T07:53:49.842Z,1.20
2022-08-05T07:58:58.787Z,0.60
2022-08-05T08:04:01.825Z,0.40
2022-08-05T08:09:04.749Z,0.68
2022-08-05T08:14:09.491Z,0.50
2022-08-05T08:20:10.719Z,0.70
2022-08-05T08:24:51.405Z,0.70
2022-08-05T08:30:05.157Z,0.63
2022-08-05T08:35:18.352Z,0.93
2022-08-05T08:40:21.952Z,0.60
2022-08-05T08:45:30.423Z,0.60
2022-08-05T08:51:23.210Z,0.50
2022-08-05T09:02:17.997Z,0.35
2022-08-05T09:07:29.129Z,0.60
2022-08-05T09:12:42.059Z,0.47
2022-08-05T09:17:49.651Z,0.60
2022-08-05T09:23:09.174Z,0.52
2022-08-05T09:28:15.010Z,1.08
2022-08-05T09:33:34.980Z,0.50
2022-08-05T09:38:38.049Z,0.50
2022-08-05T09:43:42.324Z,0.60
2022-08-05T09:48:55.307Z,0.57
2022-08-05T09:54:09.287Z,0.60
2022-08-05T09:59:17.045Z,0.73
2022-08-05T10:04:34.971Z,0.60
2022-08-05T10:09:44.899Z,0.50
2022-08-05T10:14:47.915Z,0.80
2022-08-05T10:20:04.563Z,0.77
2022-08-05T10:25:14.468Z,0.52
2022-08-05T10:32:46.896Z,0.68
2022-08-05T10:35:44.110Z,0.60
2022-08-05T10:40:58.076Z,0.90
2022-08-05T10:46:06.706Z,0.80
2022-08-05T10:51:22.074Z,0.70
2022-08-05T10:56:27.547Z,0.70
2022-08-05T11:01:55.662Z,0.80
2022-08-05T11:07:07.557Z,0.60
2022-08-05T11:12:45.333Z,1.05
2022-08-05T11:17:59.813Z,0.52
2022-08-05T11:24:04.857Z,1.95
2022-08-05T11:28:55.994Z,1.20
2022-08-05T11:34:02.171Z,0.77
2022-08-05T11:39:08.907Z,0.70
2022-08-05T11:44:12.799Z,0.60
2022-08-05T11:49:35.363Z,0.50
2022-08-05T11:54:40.731Z,1.17
2022-08-05T12:04:59.167Z,0.30
2022-08-05T12:10:11.459Z,0.73
2022-08-05T12:15:20.343Z,0.30
2022-08-05T12:20:40.733Z,0.30
2022-08-05T12:25:53.571Z,0.20
2022-08-05T12:31:01.959Z,0.32
2022-08-05T12:36:08.412Z,0.10
2022-08-05T12:46:29.552Z,0.30
2022-08-05T12:52:14.033Z,0.17
2022-08-05T12:57:09.283Z,0.95
2022-08-05T13:02:15.953Z,0.80
2022-08-05T13:07:55.855Z,0.80
2022-08-05T13:12:51.130Z,0.20
2022-08-05T13:18:00.215Z,0.43
2022-08-05T13:23:07.362Z,0.40
2022-08-05T13:28:11.495Z,0.50
2022-08-05T13:34:23.462Z,0.28
2022-08-05T13:38:42.804Z,0.20
2022-08-05T13:43:55.006Z,0.30
2022-08-05T13:49:00.495Z,0.20
2022-08-05T13:54:12.509Z,0.30
2022-08-05T13:59:19.999Z,0.30
2022-08-05T14:04:26.747Z,0.22
2022-08-05T14:09:29.819Z,0.30
2022-08-05T14:14:33.966Z,0.40
2022-08-05T14:19:55.374Z,0.30
2022-08-05T14:24:58.802Z,1.75
2022-08-05T14:30:04.210Z,0.40
2022-08-05T14:35:10.741Z,0.30
2022-08-05T14:40:16.883Z,0.30
2022-08-05T14:45:21.219Z,1.20
2022-08-05T14:50:25.277Z,0.50
2022-08-05T14:55:39.394Z,0.63
2022-08-05T15:00:58.774Z,0.43
2022-08-05T15:06:07.402Z,0.40
2022-08-05T15:11:16.062Z,0.40
2022-08-05T15:16:20.194Z,0.30
2022-08-05T15:21:24.741Z,0.65
2022-08-05T15:26:33.163Z,0.40
2022-08-05T15:31:38.422Z,0.30
2022-08-05T15:36:42.326Z,0.60
2022-08-05T15:41:55.655Z,0.47
2022-08-05T15:47:02.076Z,0.40
2022-08-05T15:52:16.230Z,0.30
2022-08-05T15:57:20.161Z,0.20
2022-08-05T16:02:25.616Z,0.30
2022-08-05T16:07:30.487Z,0.20
2022-08-05T16:12:33.160Z,0.60
2022-08-05T16:17:37.050Z,0.28
2022-08-05T16:22:39.548Z,0.50
2022-08-05T16:28:00.237Z,0.28
2022-08-05T16:33:08.309Z,0.70
2022-08-05T16:38:21.879Z,0.30
2022-08-05T16:43:29.330Z,0.40
2022-08-05T16:48:35.603Z,0.50
2022-08-05T16:54:04.772Z,5.05
2022-08-05T16:59:08.505Z,0.95
2022-08-05T17:04:12.848Z,0.90
2022-08-05T17:09:17.695Z,0.70
2022-08-05T17:14:22.304Z,0.50
2022-08-05T17:19:38.661Z,0.40
2022-08-05T17:24:45.421Z,0.30
2022-08-05T17:30:00.615Z,0.20
2022-08-05T17:35:08.061Z,0.40
2022-08-05T17:40:17.347Z,0.40
2022-08-05T17:45:21.810Z,0.28
2022-08-05T17:50:30.500Z,0.28
2022-08-05T17:55:39.524Z,0.30
2022-08-05T18:00:47.420Z,0.10
2022-08-05T18:05:53.715Z,0.40
2022-08-05T18:10:58.681Z,0.30
2022-08-05T18:16:01.142Z,0.40
2022-08-05T18:21:13.276Z,0.80
2022-08-05T18:26:29.008Z,0.50
2022-08-05T18:31:33.740Z,0.65
2022-08-05T18:36:39.280Z,0.40
2022-08-05T18:41:55.147Z,0.80
2022-08-05T18:47:05.058Z,0.50
2022-08-05T18:52:11.550Z,3.78
2022-08-05T18:57:17.173Z,0.70
2022-08-05T19:02:27.708Z,1.60
2022-08-05T19:07:46.713Z,0.90
2022-08-05T19:12:49.642Z,1.00
2022-08-05T19:18:08.771Z,0.82
2022-08-05T19:24:05.771Z,0.80
2022-08-05T19:28:38.643Z,1.20
2022-08-05T19:39:01.938Z,0.70
2022-08-05T19:49:17.651Z,0.77
2022-08-05T19:54:29.375Z,0.95
2022-08-05T19:59:55.889Z,0.38
2022-08-05T20:04:58.479Z,0.50
2022-08-05T20:10:11.804Z,0.60
2022-08-05T20:15:23.342Z,0.40
2022-08-05T20:20:44.127Z,0.45
2022-08-05T20:25:48.843Z,0.40
2022-08-05T20:35:56.851Z,0.63
2022-08-05T20:41:04.662Z,0.60
2022-08-05T20:46:11.013Z,0.50
2022-08-05T20:51:20.975Z,0.60
2022-08-05T20:56:28.208Z,0.60
2022-08-05T21:01:38.046Z,0.65
2022-08-05T21:06:45.393Z,0.47
2022-08-05T21:12:06.951Z,0.50
2022-08-05T21:17:13.488Z,0.90
2022-08-05T21:22:21.908Z,0.73
2022-08-05T21:27:27.948Z,0.88
2022-08-05T21:32:41.411Z,1.10
2022-08-05T21:37:52.976Z,0.65
2022-08-05T21:42:59.192Z,0.93
2022-08-05T21:48:02.608Z,0.90
2022-08-05T21:53:17.567Z,1.10
2022-08-05T21:58:24.946Z,0.90
2022-08-05T22:03:48.430Z,0.90
2022-08-05T22:08:55.789Z,0.70
2022-08-05T22:14:19.957Z,0.82
2022-08-05T22:20:01.003Z,0.85
2022-08-05T22:24:52.431Z,0.90
2022-08-05T22:29:57.569Z,1.00
2022-08-05T22:35:00.456Z,1.17
2022-08-05T22:40:03.149Z,1.02
2022-08-05T22:45:11.317Z,0.90
2022-08-05T22:50:19.962Z,0.93
2022-08-05T22:55:24.804Z,1.05
2022-08-05T23:00:30.317Z,1.20
2022-08-05T23:05:36.176Z,1.50
2022-08-05T23:10:39.277Z,1.20
2022-08-05T23:15:43.296Z,1.10
2022-08-05T23:20:53.202Z,0.70
2022-08-05T23:25:56.232Z,1.00
2022-08-05T23:31:07.066Z,0.90
2022-08-05T23:36:19.450Z,0.85
2022-08-05T23:41:22.257Z,1.40
2022-08-05T23:46:27.848Z,0.88
2022-08-05T23:51:33.076Z,0.98
2022-08-05T23:56:37.108Z,0.85
